Portada
METAR-TAF:

METAR-TAF

Aeropuertos :

Eureka, Nunavut, Canadá

latitud: 79-59N, longitud: 085-56W, altitud: 10 m

Observación

El informe se hizo hace 1 hora y 6 minutos, a las 13:00 UTC
Viento calma
Temperatura -38°C
Humedad 66%
Presión 1006 hPa
Visibilidad: 24.1 km
Nubes dispersas a una altura de 15000 ft

METAR: CWEU 221300Z 00000KT 15SM SCT150 M38/M42 A2972 RMK AC3 SLP067

Hora: 08:06 (14:06 UTC)


TAF: falta

Observaciones y pronósticos meteorológicos de más de 4000 aeropuertos (mensajes METAR y TAF).

Los puntos amarillos y rojos representan las estaciones disponibles.

Ponga el ratón en el punto deseado para ver el nombre de la estación.

Haga clic para ver las observaciones y los pronósticos meteorológicos.

Para cambiar el mapa : haga clic en los botones verdes con una cruz de color negro para hacer un zoom, en el botón verde con un guión para alejar o en las flechas verdes para mapas adyacentes.


METAR-TAF: